createdAt,value
2023-08-19T08:31:59.363Z,28.19
2023-08-19T08:34:55.890Z,28.69
2023-08-19T08:37:52.479Z,29
2023-08-19T08:40:47.967Z,29.26
2023-08-19T08:43:47.549Z,29.35
2023-08-19T08:46:46.072Z,29.56
2023-08-19T08:49:44.631Z,29.82
2023-08-19T08:52:41.217Z,29.76
2023-08-19T08:55:37.731Z,29.28
2023-08-19T08:58:34.304Z,29.29
2023-08-19T09:01:32.874Z,29.34
2023-08-19T09:04:34.426Z,29.62
2023-08-19T09:07:35.953Z,29.87
2023-08-19T09:10:33.497Z,29.69
2023-08-19T09:13:32.080Z,29.81
2023-08-19T09:16:27.591Z,29.93
2023-08-19T09:19:24.220Z,30.29
2023-08-19T09:22:20.823Z,30.68
2023-08-19T09:25:17.294Z,30.31
2023-08-19T09:28:17.874Z,30.49
2023-08-19T09:31:19.429Z,31
2023-08-19T09:34:16.009Z,30.42
2023-08-19T09:37:13.536Z,30.98
2023-08-19T09:40:12.371Z,31.51
2023-08-19T09:43:07.632Z,32.23
2023-08-19T09:46:03.227Z,32
2023-08-19T09:49:19.773Z,32.09
2023-08-19T09:52:20.442Z,31.96
2023-08-19T09:55:23.807Z,31.72
2023-08-19T09:58:19.385Z,32.28
2023-08-19T10:01:16.017Z,32.48
2023-08-19T10:04:11.508Z,32.41
2023-08-19T10:07:11.053Z,32.03
2023-08-19T10:10:09.628Z,31.75
2023-08-19T10:13:08.179Z,31.65
2023-08-19T10:16:06.707Z,31.66
2023-08-19T10:19:06.257Z,32.49
2023-08-19T10:22:06.362Z,32.55
2023-08-19T10:25:04.365Z,33.15
2023-08-19T10:28:07.857Z,32.97
2023-08-19T10:31:06.500Z,33.24
2023-08-19T10:34:10.976Z,33.19
2023-08-19T10:37:07.550Z,33.77
2023-08-19T10:40:06.060Z,33.39
2023-08-19T10:43:01.698Z,34.05
2023-08-19T10:46:02.238Z,34.54
2023-08-19T10:49:04.840Z,34.7
2023-08-19T10:52:15.330Z,34.73
2023-08-19T10:55:18.875Z,35.13
2023-08-19T10:58:15.400Z,35.26
2023-08-19T11:01:11.951Z,35.58
2023-08-19T11:04:07.528Z,35.59
2023-08-19T11:07:05.148Z,35.28
2023-08-19T11:10:00.649Z,35.11
2023-08-19T11:13:01.166Z,34.87
2023-08-19T11:16:01.801Z,36.07
2023-08-19T11:18:58.290Z,36.61
2023-08-19T11:21:55.821Z,36.52
2023-08-19T11:24:51.681Z,36.01
2023-08-19T11:27:47.059Z,35.22
2023-08-19T11:30:44.524Z,35.31
2023-08-19T11:33:43.110Z,35.39
2023-08-19T11:36:39.646Z,34.16
2023-08-19T11:39:37.188Z,34.42
2023-08-19T11:42:33.982Z,34.52
2023-08-19T11:45:34.318Z,33.89
2023-08-19T11:48:29.862Z,34.67
2023-08-19T11:51:26.442Z,35.45
2023-08-19T11:54:25.070Z,35.51
2023-08-19T11:57:21.706Z,35.91
2023-08-19T12:00:18.082Z,35.93
2023-08-19T12:03:15.680Z,35.19
2023-08-19T12:06:12.224Z,34.55
2023-08-19T12:09:07.776Z,34.41
2023-08-19T12:12:08.316Z,34.78
2023-08-19T12:15:04.970Z,34.41
2023-08-19T12:18:00.492Z,34.29
2023-08-19T12:20:58.002Z,34.17
2023-08-19T12:23:53.589Z,34.84
2023-08-19T12:26:49.118Z,35.39
2023-08-19T12:29:45.759Z,36.77
2023-08-19T12:32:41.319Z,37.49
2023-08-19T12:35:37.801Z,37.33
2023-08-19T12:38:33.470Z,37.8
2023-08-19T12:41:28.927Z,38.37
2023-08-19T12:44:25.482Z,37.57
2023-08-19T12:47:22.181Z,37.65
2023-08-19T12:50:19.637Z,39.08
2023-08-19T12:53:15.208Z,39.55
2023-08-19T12:56:11.754Z,39.24
2023-08-19T12:59:07.340Z,40.22
2023-08-19T13:02:05.822Z,39.92
2023-08-19T13:05:02.397Z,40.27
2023-08-19T13:07:58.967Z,40.9
2023-08-19T13:10:54.499Z,41.4
2023-08-19T13:13:50.078Z,41.37
2023-08-19T13:16:46.670Z,42.49
2023-08-19T13:19:42.218Z,42.76
2023-08-19T13:22:37.795Z,42.61
2023-08-19T13:25:34.318Z,41.92
2023-08-19T13:28:31.882Z,40.04
2023-08-19T13:31:29.462Z,40.45
2023-08-19T13:34:25.055Z,41.58
2023-08-19T13:37:20.587Z,42.1
2023-08-19T13:40:16.198Z,42.91
2023-08-19T13:43:12.716Z,43.49
2023-08-19T13:46:08.268Z,43.54
2023-08-19T13:49:04.808Z,44.01
2023-08-19T13:52:00.378Z,43.41
2023-08-19T13:54:56.930Z,43.61
2023-08-19T13:57:54.511Z,43.85
2023-08-19T14:00:52.149Z,44.25
2023-08-19T14:03:48.905Z,44.11
2023-08-19T14:06:44.176Z,44.79
2023-08-19T14:09:39.736Z,44.95
2023-08-19T14:12:35.304Z,44.63
2023-08-19T14:15:30.871Z,44.25
2023-08-19T14:18:27.403Z,45.02
2023-08-19T14:21:23.003Z,45.58
2023-08-19T14:24:18.545Z,46.13
2023-08-19T14:27:14.093Z,45.68
2023-08-19T14:30:10.690Z,44.82
2023-08-19T14:33:08.238Z,44.86
2023-08-19T14:36:04.864Z,45.32
2023-08-19T14:39:01.336Z,45.13
2023-08-19T14:41:58.008Z,45.24
2023-08-19T14:44:54.467Z,45.67
2023-08-19T14:47:50.051Z,46.34
2023-08-19T14:50:46.580Z,46.66
2023-08-19T14:53:42.176Z,45.39
2023-08-19T14:56:37.693Z,42.89
2023-08-19T14:59:34.285Z,43.4
2023-08-19T15:02:34.903Z,45.03
2023-08-19T15:05:32.378Z,44.1
2023-08-19T15:08:27.951Z,45.12
2023-08-19T15:11:23.465Z,44.27
2023-08-19T15:14:20.097Z,42.56
2023-08-19T15:17:15.579Z,42.18
2023-08-19T15:20:12.177Z,40.63
2023-08-19T15:23:07.754Z,41.05
2023-08-19T15:26:03.287Z,41.71
2023-08-19T15:28:58.835Z,42.66
2023-08-19T15:31:56.376Z,42.51
2023-08-19T15:34:52.000Z,41.49
2023-08-19T15:37:51.538Z,41.38
2023-08-19T15:40:47.084Z,40.69
2023-08-19T15:43:42.640Z,40.19
2023-08-19T15:46:38.242Z,41.55
2023-08-19T15:49:33.740Z,42.45
2023-08-19T15:52:29.388Z,43.86
2023-08-19T15:55:24.905Z,43.35
2023-08-19T15:58:20.491Z,40.58
2023-08-19T16:01:16.132Z,42.03
2023-08-19T16:04:13.153Z,40.86
2023-08-19T16:07:14.126Z,39.47
2023-08-19T16:13:16.228Z,42.52
2023-08-19T16:16:11.870Z,42.73
2023-08-19T16:19:07.363Z,42.74
2023-08-19T16:22:03.894Z,42.81
2023-08-19T16:24:59.484Z,41.43
2023-08-19T16:27:55.045Z,39.97
2023-08-19T16:30:50.617Z,39.06
2023-08-19T16:33:46.169Z,38.45
2023-08-19T16:36:41.713Z,38.95
2023-08-19T16:39:37.286Z,38.21
2023-08-19T16:42:32.852Z,37.99
2023-08-19T16:45:29.425Z,37.03
2023-08-19T16:48:25.976Z,36.52
2023-08-19T16:51:21.511Z,36.13
2023-08-19T16:54:17.066Z,35.72
2023-08-19T16:57:12.673Z,35.4
2023-08-19T17:00:08.275Z,34.71
2023-08-19T17:03:04.787Z,34.54
2023-08-19T17:06:01.346Z,34.26
2023-08-19T17:08:58.866Z,34.07
2023-08-19T17:11:54.423Z,33.62
2023-08-19T17:14:51.188Z,33.43
2023-08-19T17:17:47.611Z,33.14
2023-08-19T17:20:44.107Z,32.64
2023-08-19T17:23:41.743Z,32.22
2023-08-19T17:26:39.253Z,31.96
2023-08-19T17:29:35.818Z,32.09
2023-08-19T17:32:31.387Z,31.79
2023-08-19T17:35:26.882Z,31.7
2023-08-19T17:38:22.506Z,31.7
2023-08-19T17:41:19.074Z,31.53
2023-08-19T17:44:16.018Z,31.2
2023-08-19T17:47:13.156Z,30.94
2023-08-19T17:50:09.745Z,30.81
2023-08-19T17:53:06.276Z,30.82
2023-08-19T17:56:02.852Z,30.68
2023-08-19T17:59:03.408Z,30.6
2023-08-19T18:01:58.962Z,30.36
2023-08-19T18:04:57.575Z,30.27
2023-08-19T18:07:54.127Z,30.27
2023-08-19T18:10:50.651Z,30.04
2023-08-19T18:13:46.212Z,29.98
2023-08-19T18:16:42.743Z,29.91
2023-08-19T18:19:39.321Z,29.78
2023-08-19T18:22:36.864Z,29.79
2023-08-19T18:25:32.425Z,29.7
2023-08-19T18:28:31.044Z,29.61
2023-08-19T18:31:26.598Z,29.42
2023-08-19T18:34:22.118Z,29.35
2023-08-19T18:37:17.622Z,29.36
2023-08-19T18:40:15.392Z,29.27
2023-08-19T18:43:11.781Z,29.1
2023-08-19T18:46:08.400Z,28.96
2023-08-19T18:49:04.894Z,28.87
2023-08-19T18:52:00.485Z,28.66
2023-08-19T18:54:55.998Z,28.55
2023-08-19T18:57:51.588Z,28.5
2023-08-19T19:00:49.175Z,28.43
2023-08-19T19:03:45.690Z,28.38
2023-08-19T19:06:41.224Z,28.42
2023-08-19T19:09:37.837Z,28.32
2023-08-19T19:12:33.373Z,28.23
2023-08-19T19:15:28.990Z,28.26
2023-08-19T19:18:26.507Z,28.22
2023-08-19T19:21:24.116Z,28.11
2023-08-19T19:24:21.680Z,28.09
2023-08-19T19:27:17.197Z,28
2023-08-19T19:30:13.703Z,27.91
2023-08-19T19:33:10.309Z,27.95
2023-08-19T19:36:05.869Z,27.86
2023-08-19T19:39:01.443Z,27.52
2023-08-19T19:41:57.017Z,27.36
2023-08-19T19:44:53.607Z,27
2023-08-19T19:47:50.124Z,27.06
2023-08-19T19:50:46.630Z,27.12
2023-08-19T19:53:42.220Z,26.9
2023-08-19T19:56:37.793Z,26.86
2023-08-19T19:59:34.373Z,26.91
2023-08-19T20:02:29.907Z,26.57
2023-08-19T20:05:27.479Z,26.53
2023-08-19T20:08:26.037Z,26.52
2023-08-19T20:11:25.585Z,26.34
2023-08-19T20:14:22.124Z,26.35
2023-08-19T20:17:17.693Z,26.18
2023-08-19T20:20:14.327Z,26.06
2023-08-19T20:23:09.806Z,25.97
2023-08-19T20:26:05.353Z,25.91
2023-08-19T20:29:00.968Z,25.94
2023-08-19T20:31:58.528Z,25.93
2023-08-19T20:34:56.069Z,25.86
2023-08-19T20:37:51.667Z,25.83
2023-08-19T20:40:47.212Z,25.63
2023-08-19T20:43:44.782Z,25.8
2023-08-19T20:46:41.345Z,25.81
2023-08-19T20:49:38.865Z,25.84
2023-08-19T20:52:35.445Z,25.6
2023-08-19T20:55:31.996Z,25.69
2023-08-19T20:58:28.517Z,25.54
2023-08-19T21:01:25.122Z,25.46
2023-08-19T21:04:21.723Z,25.43
2023-08-19T21:07:18.223Z,25.31
2023-08-19T21:10:13.774Z,25.38
2023-08-19T21:13:09.341Z,25.44
2023-08-19T21:16:08.929Z,25.53
2023-08-19T21:19:04.448Z,25.58
2023-08-19T21:21:59.986Z,25.65
2023-08-19T21:24:56.576Z,25.67
2023-08-19T21:27:52.108Z,25.62
2023-08-19T21:30:54.697Z,25.53
2023-08-19T21:33:52.234Z,25.48
2023-08-19T21:36:47.757Z,25.46
2023-08-19T21:39:43.341Z,25.36
2023-08-19T21:42:42.921Z,25.39
2023-08-19T21:45:39.546Z,25.36
2023-08-19T21:48:35.002Z,25.36
2023-08-19T21:51:30.603Z,25.33
2023-08-19T21:54:26.198Z,25.32
2023-08-19T21:57:21.771Z,25.13
2023-08-19T22:00:17.287Z,25.2
2023-08-19T22:03:12.871Z,25.23
2023-08-19T22:06:16.395Z,25.02
2023-08-19T22:09:11.955Z,24.85
2023-08-19T22:12:07.514Z,24.81
2023-08-19T22:15:03.100Z,24.72
2023-08-19T22:18:00.759Z,24.71
2023-08-19T22:20:56.212Z,24.66
2023-08-19T22:23:51.789Z,24.58
2023-08-19T22:26:47.334Z,24.46
2023-08-19T22:29:42.850Z,24.4
2023-08-19T22:32:38.435Z,24.55
2023-08-19T22:35:36.980Z,24.79
2023-08-19T22:38:32.559Z,24.76
2023-08-19T22:41:28.077Z,24.64
2023-08-19T22:44:23.706Z,24.84
2023-08-19T22:47:19.298Z,24.71
2023-08-19T22:50:14.830Z,24.72
2023-08-19T22:53:10.776Z,24.62
2023-08-19T22:56:05.941Z,24.55
2023-08-19T22:59:01.505Z,24.54
2023-08-19T23:01:58.143Z,24.68
2023-08-19T23:04:53.616Z,24.69
2023-08-19T23:07:49.161Z,24.46
2023-08-19T23:10:44.753Z,24.33
2023-08-19T23:13:40.321Z,24.12
2023-08-19T23:16:35.923Z,24.06
2023-08-19T23:19:31.427Z,24.1
2023-08-19T23:22:26.978Z,24.17
2023-08-19T23:25:24.538Z,24.11
2023-08-19T23:28:20.065Z,24.31
2023-08-19T23:31:16.745Z,24.52
2023-08-19T23:34:12.231Z,24.43
2023-08-19T23:37:07.787Z,24.24
2023-08-19T23:40:04.339Z,24.25
2023-08-19T23:42:59.914Z,24.18
2023-08-19T23:45:57.484Z,24.38
2023-08-19T23:48:54.035Z,24.47
2023-08-19T23:51:52.565Z,24.5
2023-08-19T23:54:49.121Z,24.21
2023-08-19T23:57:45.701Z,24.47
